Time;durP1;ratioP1;P1;durP2;ratioP2;P2;SDS_P1;SDS_P2;PMS_P1;PMS_P2;Temp;Humidity;BMP_temperature;BMP_pressure;BME280_temperature;BME280_humidity;BME280_pressure;Samples;Min_cycle;Max_cycle;Signal;HPM_P1;HPM_P2
2021/11/19 00:00:05;;;;;;;;;;;;;;;-144.99;100.00;52537.78;5045627;28;20264;-65
2021/11/19 00:02:32;;;;;;;;;;;;;;;-144.99;100.00;52529.63;5048587;28;20504;-64
2021/11/19 00:04:58;;;;;;;;;;;;;;;-144.99;100.00;52541.84;5046827;28;19988;-65
2021/11/19 00:07:25;;;;;;;;;;;;;;;-144.99;100.00;52537.78;5049267;28;20039;-64
2021/11/19 00:09:51;;;;;;;;;;;;;;;-144.99;100.00;52533.69;5048010;28;19977;-64
2021/11/19 00:12:17;;;;;;;;;;;;;;;-144.99;100.00;52550.00;5047369;28;19980;-64
2021/11/19 00:14:44;;;;;;;;;;;;;;;-144.99;100.00;52545.94;5048148;28;19977;-64
2021/11/19 00:17:11;;;;;;;;;;;;;;;-144.99;100.00;52554.09;5049564;28;19989;-64
2021/11/19 00:19:39;;;;;;;;;;;;;;;-144.99;100.00;52533.69;5047891;28;20039;-66
2021/11/19 00:22:07;;;;;;;;;;;;;;;-144.99;100.00;52570.38;5047123;28;20461;-65
2021/11/19 00:24:34;;;;;;;;;;;;;;;-144.99;100.00;52562.25;5048400;28;19993;-66
2021/11/19 00:27:00;;;;;;;;;;;;;;;-144.99;100.00;52545.94;5047520;28;20083;-65
2021/11/19 00:29:26;;;;;;;;;;;;;;;-144.99;100.00;52517.41;5045657;28;19996;-65
2021/11/19 00:31:53;;;;;;;;;;;;;;;-144.99;100.00;52525.56;5048645;28;20076;-65
2021/11/19 00:34:21;;;;;;;;;;;;;;;-144.99;100.00;52527.59;5046469;28;20032;-65
2021/11/19 00:36:47;;;;;;;;;;;;;;;-144.99;100.00;52578.53;5045683;28;19993;-64
2021/11/19 00:39:15;;;;;;;;;;;;;;;-144.99;100.00;52521.47;5047516;28;19977;-65
2021/11/19 00:41:43;;;;;;;;;;;;;;;-144.99;100.00;52521.47;5045960;28;20457;-65
2021/11/19 00:44:11;;;;;;;;;;;;;;;-144.99;100.00;52550.00;5045303;28;19999;-65
2021/11/19 00:46:38;;;;;;;;;;;;;;;-144.99;100.00;52550.00;5049000;28;20453;-66
2021/11/19 00:49:05;;;;;;;;;;;;;;;-144.99;100.00;52574.47;5050542;28;20345;-66
2021/11/19 00:51:33;;;;;;;;;;;;;;;-144.99;100.00;52547.97;5046959;28;19986;-64
2021/11/19 00:54:00;;;;;;;;;;;;;;;-144.99;100.00;52558.16;5044795;28;19989;-64
2021/11/19 00:56:28;;;;;;;;;;;;;;;-144.99;100.00;52533.69;5046845;28;20043;-65
2021/11/19 00:58:55;;;;;;;;;;;;;;;-144.99;100.00;52529.63;5046145;28;19977;-65
2021/11/19 01:01:23;;;;;;;;;;;;;;;-144.99;100.00;52558.16;5049250;28;19981;-65
2021/11/19 01:03:49;;;;;;;;;;;;;;;-144.99;100.00;52509.25;5043539;28;19993;-64
2021/11/19 01:06:16;;;;;;;;;;;;;;;-144.99;100.00;52539.81;5049011;28;20449;-64
2021/11/19 01:08:44;;;;;;;;;;;;;;;-144.99;100.00;52584.66;5049358;28;19989;-65
2021/11/19 01:11:12;;;;;;;;;;;;;;;-144.99;100.00;52529.63;5047400;28;19958;-64
2021/11/19 01:13:39;;;;;;;;;;;;;;;-144.99;100.00;52560.19;5046615;28;20079;-64
2021/11/19 01:16:08;;;;;;;;;;;;;;;-144.99;100.00;52521.47;5045633;28;20000;-64
2021/11/19 01:18:36;;;;;;;;;;;;;;;-144.99;100.00;52550.00;5047801;28;19981;-64
2021/11/19 01:21:05;;;;;;;;;;;;;;;-144.99;100.00;52525.56;5042744;28;19979;-64
2021/11/19 01:23:31;;;;;;;;;;;;;;;-144.99;100.00;52539.81;5044528;28;19993;-63
2021/11/19 01:26:02;;;;;;;;;;;;;;;-144.99;100.00;52537.78;5047532;28;19973;-63
2021/11/19 01:28:29;;;;;;;;;;;;;;;-144.99;100.00;52509.25;5047430;28;19977;-64
2021/11/19 01:30:58;;;;;;;;;;;;;;;-144.99;100.00;52541.84;5046166;28;19989;-64
2021/11/19 01:33:24;;;;;;;;;;;;;;;-144.99;100.00;52558.16;5043996;28;20000;-64
2021/11/19 01:35:51;;;;;;;;;;;;;;;-144.99;100.00;52550.00;5043359;28;19998;-65
2021/11/19 01:38:18;;;;;;;;;;;;;;;-144.99;100.00;52554.09;5051168;28;19973;-63
2021/11/19 01:40:46;;;;;;;;;;;;;;;-144.99;100.00;52554.09;5047553;28;20368;-63
2021/11/19 01:43:14;;;;;;;;;;;;;;;-144.99;100.00;52554.09;5041528;28;19997;-63
2021/11/19 01:45:44;;;;;;;;;;;;;;;-144.99;100.00;52529.63;5041410;28;19989;-62
2021/11/19 01:48:13;;;;;;;;;;;;;;;-144.99;100.00;52572.44;5043216;28;19982;-63
2021/11/19 01:50:46;;;;;;;;;;;;;;;-144.99;100.00;52562.25;5047216;28;19984;-61
2021/11/19 01:53:14;;;;;;;;;;;;;;;-144.99;100.00;52529.63;5043774;28;19989;-62
2021/11/19 01:55:42;;;;;;;;;;;;;;;-144.99;100.00;52537.78;5046905;28;19987;-67
2021/11/19 01:58:17;;;;;;;;;;;;;;;-144.99;100.00;52492.94;5047536;28;19984;-63
2021/11/19 02:00:48;;;;;;;;;;;;;;;-144.99;100.00;52521.47;5044478;28;20428;-64
2021/11/19 02:03:16;;;;;;;;;;;;;;;-144.99;100.00;52570.38;5046976;28;19997;-66
2021/11/19 02:05:43;;;;;;;;;;;;;;;-144.99;100.00;52574.47;5048619;28;19988;-65
2021/11/19 02:08:11;;;;;;;;;;;;;;;-144.99;100.00;52570.38;5050442;28;19973;-67
2021/11/19 02:10:44;;;;;;;;;;;;;;;-144.99;100.00;52513.31;5050200;28;20439;-67
2021/11/19 02:13:17;;;;;;;;;;;;;;;-144.99;100.00;52543.91;5046032;28;20051;-66
2021/11/19 02:15:47;;;;;;;;;;;;;;;-144.99;100.00;52545.94;5049225;28;19981;-67
2021/11/19 02:18:16;;;;;;;;;;;;;;;-144.99;100.00;52566.31;5051761;28;19981;-66
2021/11/19 02:20:44;;;;;;;;;;;;;;;-144.99;100.00;52521.47;5049794;28;19984;-66
2021/11/19 02:23:12;;;;;;;;;;;;;;;-144.99;100.00;52513.31;5051158;28;20001;-68
2021/11/19 02:25:40;;;;;;;;;;;;;;;-144.99;100.00;52545.94;5033738;28;19988;-68
2021/11/19 02:28:10;;;;;;;;;;;;;;;-144.99;100.00;52594.84;5051817;28;20145;-70
2021/11/19 02:30:44;;;;;;;;;;;;;;;-144.99;100.00;52576.50;5051244;28;19984;-69
2021/11/19 02:33:12;;;;;;;;;;;;;;;-144.99;100.00;52523.50;5051678;28;20423;-69
2021/11/19 02:35:54;;;;;;;;;;;;;;;-144.99;100.00;52554.09;5050372;28;20353;-69
2021/11/19 02:38:22;;;;;;;;;;;;;;;-144.99;100.00;52578.53;5049840;28;19977;-68
2021/11/19 02:40:50;;;;;;;;;;;;;;;-144.99;100.00;52541.84;5044828;28;20357;-67
2021/11/19 02:43:18;;;;;;;;;;;;;;;-144.99;100.00;52511.28;5049164;28;20338;-66
2021/11/19 02:45:47;;;;;;;;;;;;;;;-144.99;100.00;52582.63;5051203;28;20004;-67
2021/11/19 02:48:16;;;;;;;;;;;;;;;-144.99;100.00;52525.56;5048800;28;20445;-67
2021/11/19 02:50:42;;;;;;;;;;;;;;;-144.99;100.00;52537.78;5051604;28;20228;-66
2021/11/19 02:53:10;;;;;;;;;;;;;;;-144.99;100.00;52527.59;5044494;28;19989;-67
2021/11/19 02:55:38;;;;;;;;;;;;;;;-144.99;100.00;52537.78;5050471;28;19985;-68
2021/11/19 02:58:06;;;;;;;;;;;;;;;-144.99;100.00;52550.00;5050118;28;20485;-67
2021/11/19 03:00:36;;;;;;;;;;;;;;;-144.99;100.00;52545.94;5051015;28;19992;-65
2021/11/19 03:03:02;;;;;;;;;;;;;;;-144.99;100.00;52558.16;5049876;28;20382;-67
2021/11/19 03:05:30;;;;;;;;;;;;;;;-144.99;100.00;52523.50;5050539;28;19953;-66
2021/11/19 03:07:57;;;;;;;;;;;;;;;-144.99;100.00;52525.56;5050059;28;20361;-60
2021/11/19 03:10:27;;;;;;;;;;;;;;;-144.99;100.00;52562.25;5049339;28;19985;-60
2021/11/19 03:12:54;;;;;;;;;;;;;;;-144.99;100.00;52574.47;5048227;28;19993;-61
2021/11/19 03:15:22;;;;;;;;;;;;;;;-144.99;100.00;52537.78;5038560;28;20201;-61
2021/11/19 03:17:49;;;;;;;;;;;;;;;-144.99;100.00;52558.16;5050340;28;19993;-59
2021/11/19 03:20:16;;;;;;;;;;;;;;;-144.99;100.00;52545.94;5050731;28;19988;-60
2021/11/19 03:22:44;;;;;;;;;;;;;;;-144.99;100.00;52564.28;5050766;28;20664;-60
2021/11/19 03:25:12;;;;;;;;;;;;;;;-144.99;100.00;52570.38;5044428;28;19973;-60
2021/11/19 03:27:39;;;;;;;;;;;;;;;-144.99;100.00;52545.94;5037794;28;20384;-61
2021/11/19 03:30:07;;;;;;;;;;;;;;;-144.99;100.00;52527.59;5050484;28;20020;-60
2021/11/19 03:32:34;;;;;;;;;;;;;;;-144.99;100.00;52554.09;5043468;28;19993;-59
2021/11/19 03:35:01;;;;;;;;;;;;;;;-144.99;100.00;52503.13;5038225;28;20434;-59
2021/11/19 03:37:27;;;;;;;;;;;;;;;-144.99;100.00;52576.50;5046963;28;20001;-60
2021/11/19 03:39:55;;;;;;;;;;;;;;;-144.99;100.00;52513.31;5044745;28;19981;-60
2021/11/19 03:42:22;;;;;;;;;;;;;;;-144.99;100.00;52562.25;5050097;28;19984;-62
2021/11/19 03:44:50;;;;;;;;;;;;;;;-144.99;100.00;52521.47;5042720;28;19977;-60
2021/11/19 03:47:33;;;;;;;;;;;;;;;-144.99;100.00;52558.16;5044980;28;19974;-60
2021/11/19 03:50:01;;;;;;;;;;;;;;;-144.99;100.00;52525.56;5049647;28;20614;-60
2021/11/19 03:52:29;;;;;;;;;;;;;;;-144.99;100.00;52525.56;5047888;28;19996;-60
2021/11/19 03:54:59;;;;;;;;;;;;;;;-144.99;100.00;52492.94;5048599;28;20175;-60
2021/11/19 03:57:26;;;;;;;;;;;;;;;-144.99;100.00;52554.09;5042363;28;20001;-61
2021/11/19 03:59:53;;;;;;;;;;;;;;;-144.99;100.00;52566.31;5049750;28;20007;-61
2021/11/19 04:02:21;;;;;;;;;;;;;;;-144.99;100.00;52558.16;5048813;28;19996;-61
2021/11/19 04:04:48;;;;;;;;;;;;;;;-144.99;100.00;52574.47;5049156;28;19992;-61
2021/11/19 04:07:15;;;;;;;;;;;;;;;-144.99;100.00;52554.09;5044473;28;20207;-59
2021/11/19 04:09:44;;;;;;;;;;;;;;;-144.99;100.00;52562.25;5049597;28;19977;-60
2021/11/19 04:12:12;;;;;;;;;;;;;;;-144.99;100.00;52552.03;5049174;28;20052;-62
2021/11/19 04:14:39;;;;;;;;;;;;;;;-144.99;100.00;52541.84;5049244;28;19989;-60
2021/11/19 04:17:06;;;;;;;;;;;;;;;-144.99;100.00;52558.16;5049209;28;20004;-60
2021/11/19 04:19:33;;;;;;;;;;;;;;;-144.99;100.00;52558.16;5048842;28;20060;-60
2021/11/19 04:22:00;;;;;;;;;;;;;;;-144.99;100.00;52537.78;5037549;28;19967;-61
2021/11/19 04:24:29;;;;;;;;;;;;;;;-144.99;100.00;52533.69;5049400;28;19997;-61
2021/11/19 04:26:55;;;;;;;;;;;;;;;-144.99;100.00;52539.81;5046611;28;19989;-62
2021/11/19 04:29:23;;;;;;;;;;;;;;;-144.99;100.00;52529.63;5048664;28;20426;-60
2021/11/19 04:31:49;;;;;;;;;;;;;;;-144.99;100.00;52545.94;5034376;28;19977;-60
2021/11/19 04:34:16;;;;;;;;;;;;;;;-144.99;100.00;52558.16;5048213;28;19993;-60
2021/11/19 04:36:42;;;;;;;;;;;;;;;-144.99;100.00;52550.00;5049556;28;20369;-60
2021/11/19 04:39:10;;;;;;;;;;;;;;;-144.99;100.00;52529.63;5049644;28;20552;-59
2021/11/19 04:41:37;;;;;;;;;;;;;;;-144.99;100.00;52527.59;5048469;28;19981;-60
2021/11/19 04:44:05;;;;;;;;;;;;;;;-144.99;100.00;52558.16;5048704;28;19997;-60
2021/11/19 04:46:33;;;;;;;;;;;;;;;-144.99;100.00;52545.94;5049879;28;19977;-60
2021/11/19 04:48:59;;;;;;;;;;;;;;;-144.99;100.00;52554.09;5048971;28;19978;-60
2021/11/19 04:51:26;;;;;;;;;;;;;;;-144.99;100.00;52574.47;5048487;28;20446;-59
2021/11/19 04:53:53;;;;;;;;;;;;;;;-144.99;100.00;52543.91;5049760;28;20001;-59
2021/11/19 04:56:20;;;;;;;;;;;;;;;-144.99;100.00;52558.16;5048102;28;19977;-59
2021/11/19 04:58:47;;;;;;;;;;;;;;;-144.99;100.00;52525.56;5048968;28;20005;-59
2021/11/19 05:01:15;;;;;;;;;;;;;;;-144.99;100.00;52560.19;5048614;28;19988;-60
2021/11/19 05:03:43;;;;;;;;;;;;;;;-144.99;100.00;52523.50;5042467;28;19993;-63
2021/11/19 05:06:10;;;;;;;;;;;;;;;-144.99;100.00;52521.47;5049107;28;20084;-63
2021/11/19 05:08:37;;;;;;;;;;;;;;;-144.99;100.00;52554.09;5038112;28;19978;-64
2021/11/19 05:11:04;;;;;;;;;;;;;;;-144.99;100.00;52521.47;5046682;28;19992;-63
2021/11/19 05:13:32;;;;;;;;;;;;;;;-144.99;100.00;52529.63;5041421;28;20006;-64
2021/11/19 05:15:58;;;;;;;;;;;;;;;-144.99;100.00;52572.44;5042753;28;20236;-65
2021/11/19 05:18:27;;;;;;;;;;;;;;;-144.99;100.00;52547.97;5035835;28;19994;-60
2021/11/19 05:20:56;;;;;;;;;;;;;;;-144.99;100.00;52570.38;5039467;28;19981;-64
2021/11/19 05:23:22;;;;;;;;;;;;;;;-144.99;100.00;52533.69;5042314;28;20159;-64
2021/11/19 05:25:49;;;;;;;;;;;;;;;-144.99;100.00;52566.31;5041752;28;20323;-65
2021/11/19 05:28:17;;;;;;;;;;;;;;;-144.99;100.00;52521.47;5031177;28;20064;-63
2021/11/19 05:30:44;;;;;;;;;;;;;;;-144.99;100.00;52537.78;5041926;28;19977;-65
2021/11/19 05:33:12;;;;;;;;;;;;;;;-144.99;100.00;52529.63;5046074;28;20084;-65
2021/11/19 05:35:38;;;;;;;;;;;;;;;-144.99;100.00;52554.09;5039986;28;19977;-64
2021/11/19 05:38:06;;;;;;;;;;;;;;;-144.99;100.00;52537.78;5048867;28;20004;-65
2021/11/19 05:40:33;;;;;;;;;;;;;;;-144.99;100.00;52566.31;5049459;28;20000;-65
2021/11/19 05:43:00;;;;;;;;;;;;;;;-144.99;100.00;52574.47;5044293;28;20410;-65
2021/11/19 05:45:28;;;;;;;;;;;;;;;-144.99;100.00;52509.25;5039781;28;20415;-65
2021/11/19 05:47:54;;;;;;;;;;;;;;;-144.99;100.00;52550.00;5049584;28;19981;-65
2021/11/19 05:50:22;;;;;;;;;;;;;;;-144.99;100.00;52578.53;5045534;28;19984;-65
2021/11/19 05:52:49;;;;;;;;;;;;;;;-144.99;100.00;52537.78;5046304;28;20024;-64
2021/11/19 05:55:19;;;;;;;;;;;;;;;-144.99;100.00;52564.28;5044308;28;20032;-63
2021/11/19 05:57:45;;;;;;;;;;;;;;;-144.99;100.00;52558.16;5044986;28;20000;-64
2021/11/19 06:00:15;;;;;;;;;;;;;;;-144.99;100.00;52570.38;5063509;22;19993;-71
2021/11/19 06:02:41;;;;;;;;;;;;;;;-144.99;100.00;52545.94;5038182;28;19994;-70
2021/11/19 06:05:09;;;;;;;;;;;;;;;-144.99;100.00;52550.00;5027410;28;19978;-70
2021/11/19 06:07:36;;;;;;;;;;;;;;;-144.99;100.00;52537.78;4335758;28;10000708;-71
2021/11/19 06:10:03;;;;;;;;;;;;;;;-144.99;100.00;52547.97;5030400;28;20376;-70
2021/11/19 06:12:34;;;;;;;;;;;;;;;-144.99;100.00;52545.94;5028097;28;20136;-70
2021/11/19 06:15:02;;;;;;;;;;;;;;;-144.99;100.00;52550.00;5029318;28;20358;-70
2021/11/19 06:17:30;;;;;;;;;;;;;;;-144.99;100.00;52590.78;5030365;28;20001;-70
2021/11/19 06:19:58;;;;;;;;;;;;;;;-144.99;100.00;52505.16;5029799;28;20517;-70
2021/11/19 06:22:27;;;;;;;;;;;;;;;-144.99;100.00;52554.09;5026977;28;19989;-70
2021/11/19 06:24:55;;;;;;;;;;;;;;;-144.99;100.00;52578.53;5021932;28;20426;-71
2021/11/19 06:27:24;;;;;;;;;;;;;;;-144.99;100.00;52537.78;5030330;28;20443;-70
2021/11/19 06:29:53;;;;;;;;;;;;;;;-144.99;100.00;52576.50;5029956;28;19978;-70
2021/11/19 06:32:20;;;;;;;;;;;;;;;-144.99;100.00;52564.28;5027750;28;19950;-69
2021/11/19 06:34:46;;;;;;;;;;;;;;;-144.99;100.00;52556.13;5029544;28;20005;-70
2021/11/19 06:37:12;;;;;;;;;;;;;;;-144.99;100.00;52594.84;5030156;28;19990;-72
2021/11/19 06:39:41;;;;;;;;;;;;;;;-144.99;100.00;52550.00;5030080;28;20382;-70
2021/11/19 06:42:08;;;;;;;;;;;;;;;-144.99;100.00;52533.69;5029095;28;19984;-70
2021/11/19 06:44:34;;;;;;;;;;;;;;;-144.99;100.00;52568.34;5029153;28;20008;-70
2021/11/19 06:47:02;;;;;;;;;;;;;;;-144.99;100.00;52570.38;5021580;28;19981;-71
2021/11/19 06:49:28;;;;;;;;;;;;;;;-144.99;100.00;52533.69;5029098;28;19993;-70
2021/11/19 06:51:55;;;;;;;;;;;;;;;-144.99;100.00;52545.94;5028897;28;19985;-70
2021/11/19 06:54:21;;;;;;;;;;;;;;;-144.99;100.00;52574.47;5025507;28;20024;-70
2021/11/19 06:56:48;;;;;;;;;;;;;;;-144.99;100.00;52547.97;5029846;28;19968;-70
2021/11/19 06:59:14;;;;;;;;;;;;;;;-144.99;100.00;52529.63;5029587;28;20187;-70
2021/11/19 07:01:41;;;;;;;;;;;;;;;-144.99;100.00;52554.09;5029895;28;20374;-69
2021/11/19 07:04:08;;;;;;;;;;;;;;;-144.99;100.00;52574.47;5016879;28;20005;-70
2021/11/19 07:06:36;;;;;;;;;;;;;;;-144.99;100.00;52558.16;5029730;28;19982;-71
2021/11/19 07:09:03;;;;;;;;;;;;;;;-144.99;100.00;52588.75;5029686;28;19995;-72
2021/11/19 07:11:30;;;;;;;;;;;;;;;-144.99;100.00;52541.84;5029722;28;20365;-71
2021/11/19 07:13:56;;;;;;;;;;;;;;;-144.99;100.00;52527.59;5028661;28;20004;-70
2021/11/19 07:16:24;;;;;;;;;;;;;;;-144.99;100.00;52537.78;5029651;28;20349;-69
2021/11/19 07:18:51;;;;;;;;;;;;;;;-144.99;100.00;52566.31;5028712;28;20436;-71
2021/11/19 07:21:18;;;;;;;;;;;;;;;-144.99;100.00;52545.94;5029598;28;19977;-71
2021/11/19 07:23:45;;;;;;;;;;;;;;;-144.99;100.00;52558.16;5025907;28;19998;-71
2021/11/19 07:26:11;;;;;;;;;;;;;;;-144.99;100.00;52566.31;5029286;28;19978;-71
2021/11/19 07:28:38;;;;;;;;;;;;;;;-144.99;100.00;52499.06;5028599;28;19982;-72
2021/11/19 07:31:06;;;;;;;;;;;;;;;-144.99;100.00;52545.94;5029060;28;20008;-71
2021/11/19 07:33:32;;;;;;;;;;;;;;;-144.99;100.00;52560.19;5028253;28;20005;-71
2021/11/19 07:35:59;;;;;;;;;;;;;;;-144.99;100.00;52550.00;5021129;28;19977;-71
2021/11/19 07:38:28;;;;;;;;;;;;;;;-144.99;100.00;52578.53;5029800;28;20373;-71
2021/11/19 07:40:55;;;;;;;;;;;;;;;-144.99;100.00;52537.78;5029002;28;19997;-69
2021/11/19 07:43:22;;;;;;;;;;;;;;;-144.99;100.00;52547.97;5028567;28;20474;-71
2021/11/19 07:45:49;;;;;;;;;;;;;;;-144.99;100.00;52517.41;5027077;28;20076;-72
2021/11/19 07:48:17;;;;;;;;;;;;;;;-144.99;100.00;52550.00;5028214;28;20286;-70
2021/11/19 07:50:45;;;;;;;;;;;;;;;-144.99;100.00;52554.09;5028212;28;19982;-71
2021/11/19 07:53:13;;;;;;;;;;;;;;;-144.99;100.00;52539.81;5028352;28;20441;-71
2021/11/19 07:55:42;;;;;;;;;;;;;;;-144.99;100.00;52529.63;5020099;28;20089;-71
2021/11/19 07:58:09;;;;;;;;;;;;;;;-144.99;100.00;52484.78;5015533;28;20249;-71
2021/11/19 08:00:37;;;;;;;;;;;;;;;-144.99;100.00;52509.25;5028324;28;20407;-71
2021/11/19 08:03:04;;;;;;;;;;;;;;;-144.99;100.00;52541.84;5027565;28;19997;-74
2021/11/19 08:05:31;;;;;;;;;;;;;;;-144.99;100.00;52562.25;5022994;28;19984;-71
2021/11/19 08:07:57;;;;;;;;;;;;;;;-144.99;100.00;52529.63;5027883;28;19997;-71
2021/11/19 08:10:24;;;;;;;;;;;;;;;-144.99;100.00;52521.47;5021640;28;20439;-71
2021/11/19 08:12:51;;;;;;;;;;;;;;;-144.99;100.00;52562.25;5015961;28;19989;-71
2021/11/19 08:15:19;;;;;;;;;;;;;;;-144.99;100.00;52598.94;5027909;28;19973;-71
2021/11/19 08:17:49;;;;;;;;;;;;;;;-144.99;100.00;52527.59;5027127;28;19981;-71
2021/11/19 08:20:17;;;;;;;;;;;;;;;-144.99;100.00;52521.47;5028044;28;19986;-71
2021/11/19 08:22:43;;;;;;;;;;;;;;;-144.99;100.00;52533.69;5028086;28;20005;-71
2021/11/19 08:25:10;;;;;;;;;;;;;;;-144.99;100.00;52564.28;5026070;28;20442;-71
2021/11/19 08:27:38;;;;;;;;;;;;;;;-144.99;100.00;52525.56;5023462;28;19974;-71
2021/11/19 08:30:08;;;;;;;;;;;;;;;-144.99;100.00;52527.59;5028714;28;19989;-71
2021/11/19 08:32:35;;;;;;;;;;;;;;;-144.99;100.00;52550.00;5027747;28;20000;-71
2021/11/19 08:35:02;;;;;;;;;;;;;;;-144.99;100.00;52545.94;5027499;28;20477;-72
2021/11/19 08:37:28;;;;;;;;;;;;;;;-144.99;100.00;52578.53;5025603;28;20311;-71
2021/11/19 08:39:54;;;;;;;;;;;;;;;-144.99;100.00;52527.59;5027725;28;20012;-71
2021/11/19 08:42:22;;;;;;;;;;;;;;;-144.99;100.00;52582.63;5028079;28;20068;-71
2021/11/19 08:44:48;;;;;;;;;;;;;;;-144.99;100.00;52529.63;5028110;28;19977;-72
2021/11/19 08:47:17;;;;;;;;;;;;;;;-144.99;100.00;52550.00;5026284;28;20524;-71
2021/11/19 08:49:43;;;;;;;;;;;;;;;-144.99;100.00;52499.06;5027605;28;20007;-71
2021/11/19 08:52:12;;;;;;;;;;;;;;;-144.99;100.00;52554.09;5027616;28;19977;-71
2021/11/19 08:54:39;;;;;;;;;;;;;;;-144.99;100.00;52545.94;5027501;28;19988;-71
2021/11/19 08:57:08;;;;;;;;;;;;;;;-144.99;100.00;52529.63;5027780;28;20393;-71
2021/11/19 08:59:36;;;;;;;;;;;;;;;-144.99;100.00;52556.13;5027126;28;20008;-71
2021/11/19 09:02:03;;;;;;;;;;;;;;;-144.99;100.00;52543.91;5018530;28;19981;-72
2021/11/19 09:04:32;;;;;;;;;;;;;;;-144.99;100.00;52543.91;5027377;28;20470;-71
2021/11/19 09:06:59;;;;;;;;;;;;;;;-144.99;100.00;52566.31;5019737;28;19981;-72
2021/11/19 09:09:26;;;;;;;;;;;;;;;-144.99;100.00;52570.38;5025711;28;20557;-70
2021/11/19 09:11:52;;;;;;;;;;;;;;;-144.99;100.00;52529.63;5027078;28;20474;-70
2021/11/19 09:14:19;;;;;;;;;;;;;;;-144.99;100.00;52507.19;5026614;28;20004;-71
2021/11/19 09:16:54;;;;;;;;;;;;;;;-144.99;100.00;52560.19;5027651;28;19977;-71
2021/11/19 09:19:24;;;;;;;;;;;;;;;-144.99;100.00;52558.16;5027798;28;20247;-71
2021/11/19 09:21:55;;;;;;;;;;;;;;;-144.99;100.00;52547.97;5027947;28;19982;-73
2021/11/19 09:24:29;;;;;;;;;;;;;;;-144.99;100.00;52541.84;5027820;28;19998;-71
2021/11/19 09:26:56;;;;;;;;;;;;;;;-144.99;100.00;52537.78;5027954;28;20461;-71
2021/11/19 09:29:27;;;;;;;;;;;;;;;-144.99;100.00;52537.78;5019710;28;19985;-73
2021/11/19 09:31:53;;;;;;;;;;;;;;;-144.99;100.00;52558.16;5025257;28;19981;-72
2021/11/19 09:34:20;;;;;;;;;;;;;;;-144.99;100.00;52582.63;5026841;28;20416;-71
2021/11/19 09:36:47;;;;;;;;;;;;;;;-144.99;100.00;52554.09;5027648;28;20076;-71
2021/11/19 09:39:16;;;;;;;;;;;;;;;-144.99;100.00;52562.25;5025411;28;19998;-71
2021/11/19 09:41:48;;;;;;;;;;;;;;;-144.99;100.00;52517.41;5032904;28;20159;-71
2021/11/19 09:44:38;;;;;;;;;;;;;;;-144.99;100.00;52525.56;5032326;28;19993;-72
2021/11/19 09:47:22;;;;;;;;;;;;;;;-144.99;100.00;52513.31;5041147;28;20021;-72
2021/11/19 09:50:04;;;;;;;;;;;;;;;-144.99;100.00;52541.84;5039526;28;19982;-71
2021/11/19 09:52:54;;;;;;;;;;;;;;;-144.99;100.00;52537.78;5036501;28;19988;-71
2021/11/19 09:55:35;;;;;;;;;;;;;;;-144.99;100.00;52537.78;5040687;28;19985;-70
2021/11/19 09:58:20;;;;;;;;;;;;;;;-144.99;100.00;52566.31;5038322;28;19981;-72
2021/11/19 10:01:07;;;;;;;;;;;;;;;-144.99;100.00;52509.25;5032808;28;19968;-71
2021/11/19 10:03:45;;;;;;;;;;;;;;;-144.99;100.00;52550.00;5029597;28;19997;-73
2021/11/19 10:06:13;;;;;;;;;;;;;;;-144.99;100.00;52543.91;5029014;28;19981;-69
2021/11/19 10:08:45;;;;;;;;;;;;;;;-144.99;100.00;52509.25;5022556;28;19982;-71
2021/11/19 10:11:16;;;;;;;;;;;;;;;-144.99;100.00;52550.00;5026136;28;19984;-71
2021/11/19 10:14:01;;;;;;;;;;;;;;;-144.99;100.00;52570.38;5027207;28;20454;-72
2021/11/19 10:16:33;;;;;;;;;;;;;;;-144.99;100.00;52537.78;5023173;28;19982;-70
2021/11/19 10:19:06;;;;;;;;;;;;;;;-144.99;100.00;52533.69;5026163;28;19998;-71
2021/11/19 10:21:34;;;;;;;;;;;;;;;-144.99;100.00;52533.69;5017569;28;19981;-70
2021/11/19 10:24:07;;;;;;;;;;;;;;;-144.99;100.00;52558.16;5027414;28;19989;-71
2021/11/19 10:26:35;;;;;;;;;;;;;;;-144.99;100.00;52521.47;5040786;28;19978;-72
2021/11/19 10:29:04;;;;;;;;;;;;;;;-144.99;100.00;52574.47;5033957;28;20201;-71
2021/11/19 10:31:31;;;;;;;;;;;;;;;-144.99;100.00;52574.47;5026252;28;19989;-71
2021/11/19 10:34:03;;;;;;;;;;;;;;;-144.99;100.00;52570.38;5035528;28;19993;-71
2021/11/19 10:36:33;;;;;;;;;;;;;;;-144.99;100.00;52509.25;5031854;28;19985;-71
2021/11/19 10:39:15;;;;;;;;;;;;;;;-144.99;100.00;52537.78;5030036;28;20024;-71
2021/11/19 10:42:02;;;;;;;;;;;;;;;-144.99;100.00;52570.38;5017206;28;20087;-71
2021/11/19 10:44:33;;;;;;;;;;;;;;;-144.99;100.00;52562.25;5030057;28;20437;-71
2021/11/19 10:47:14;;;;;;;;;;;;;;;-144.99;100.00;52537.78;5033312;28;19984;-72
2021/11/19 10:49:55;;;;;;;;;;;;;;;-144.99;100.00;52541.84;5030070;28;20024;-70
2021/11/19 10:52:40;;;;;;;;;;;;;;;-144.99;100.00;52550.00;5032306;28;20109;-70
2021/11/19 10:55:25;;;;;;;;;;;;;;;-144.99;100.00;52521.47;5033367;28;20000;-70
2021/11/19 10:58:06;;;;;;;;;;;;;;;-144.99;100.00;52554.09;5031613;28;19977;-71
2021/11/19 11:00:37;;;;;;;;;;;;;;;-144.99;100.00;52550.00;5013882;28;20004;-70
2021/11/19 11:03:10;;;;;;;;;;;;;;;-144.99;100.00;52552.03;5032911;28;19997;-71
2021/11/19 11:05:38;;;;;;;;;;;;;;;-144.99;100.00;52545.94;5033397;28;20017;-71
2021/11/19 11:08:13;;;;;;;;;;;;;;;-144.99;100.00;52586.69;5033130;28;19988;-70
2021/11/19 11:10:44;;;;;;;;;;;;;;;-144.99;100.00;52545.94;5031305;28;19985;-71
2021/11/19 11:13:21;;;;;;;;;;;;;;;-144.99;100.00;52509.25;5036748;28;20482;-70
2021/11/19 11:15:50;;;;;;;;;;;;;;;-144.99;100.00;52541.84;5029502;28;19988;-71
2021/11/19 11:18:23;;;;;;;;;;;;;;;-144.99;100.00;52529.63;5033434;28;19992;-70
2021/11/19 11:21:04;;;;;;;;;;;;;;;-144.99;100.00;52513.31;5035238;28;20324;-71
2021/11/19 11:23:33;;;;;;;;;;;;;;;-144.99;100.00;52552.03;5035676;28;19994;-70
2021/11/19 11:26:02;;;;;;;;;;;;;;;-144.99;100.00;52525.56;5035390;28;20064;-69
2021/11/19 11:28:43;;;;;;;;;;;;;;;-144.99;100.00;52545.94;5036154;28;20261;-72
2021/11/19 11:31:27;;;;;;;;;;;;;;;-144.99;100.00;52574.47;5031876;28;20008;-69
2021/11/19 11:33:57;;;;;;;;;;;;;;;-144.99;100.00;52554.09;5032722;28;20365;-73
2021/11/19 11:36:30;;;;;;;;;;;;;;;-144.99;100.00;52517.41;5034867;28;20076;-71
2021/11/19 11:39:04;;;;;;;;;;;;;;;-144.99;100.00;52550.00;5033910;28;20020;-70
2021/11/19 11:41:34;;;;;;;;;;;;;;;-144.99;100.00;52574.47;5024337;28;20285;-70
2021/11/19 11:44:05;;;;;;;;;;;;;;;-144.99;100.00;52554.09;5029254;28;20009;-70
2021/11/19 11:46:32;;;;;;;;;;;;;;;-144.99;99.83;52556.13;5027313;28;19978;-70
2021/11/19 11:49:09;;;;;;;;;;;;;;;-144.99;99.92;52533.69;5019864;28;19984;-71
2021/11/19 11:51:44;;;;;;;;;;;;;;;-144.99;100.00;52521.47;5028687;28;19985;-71
2021/11/19 11:54:16;;;;;;;;;;;;;;;-144.99;99.90;52531.66;5028580;28;20548;-70
2021/11/19 11:56:44;;;;;;;;;;;;;;;-144.99;99.88;52521.47;5022794;28;19982;-70
2021/11/19 11:59:13;;;;;;;;;;;;;;;-144.99;99.38;52517.41;5017953;28;19994;-70
2021/11/19 12:01:42;;;;;;;;;;;;;;;-144.99;100.00;52513.31;5030972;28;19989;-71
2021/11/19 12:04:14;;;;;;;;;;;;;;;-144.99;100.00;52556.13;5031826;28;19997;-71
2021/11/19 12:06:43;;;;;;;;;;;;;;;-144.99;98.71;52531.66;5029973;28;19985;-72
2021/11/19 12:09:16;;;;;;;;;;;;;;;-144.99;98.55;52537.78;5022129;28;19982;-71
2021/11/19 12:12:06;;;;;;;;;;;;;;;-144.99;99.01;52529.63;5028311;28;19985;-71
2021/11/19 12:14:42;;;;;;;;;;;;;;;-144.99;97.48;52552.03;5027493;28;20051;-70
2021/11/19 12:17:13;;;;;;;;;;;;;;;-144.99;96.80;52521.47;5021623;28;20106;-71
2021/11/19 12:19:43;;;;;;;;;;;;;;;-144.99;97.26;52537.78;5025413;28;20005;-70
2021/11/19 12:22:15;;;;;;;;;;;;;;;-144.99;97.37;52541.84;5028198;28;19985;-70
2021/11/19 12:24:54;;;;;;;;;;;;;;;-144.99;97.55;52554.09;5029571;28;19992;-71
2021/11/19 12:27:28;;;;;;;;;;;;;;;-144.99;97.51;52558.16;5025977;28;20497;-72